sensor_id;sensor_type;location;lat;lon;timestamp;pressure;altitude;pressure_sealevel;temperature;humidity
13420;BME280;6781;58.440;15.470;2022-12-24T00:32:19;100715.94;;;-4.67;100.00
13420;BME280;6781;58.440;15.470;2022-12-24T00:34:46;100703.38;;;-4.73;100.00
13420;BME280;6781;58.440;15.470;2022-12-24T00:37:13;100703.53;;;-4.85;100.00
13420;BME280;6781;58.440;15.470;2022-12-24T00:39:54;100708.66;;;-4.88;100.00
13420;BME280;6781;58.440;15.470;2022-12-24T00:42:34;100711.22;;;-4.93;100.00
13420;BME280;6781;58.440;15.470;2022-12-24T00:45:15;100707.00;;;-4.92;100.00
13420;BME280;6781;58.440;15.470;2022-12-24T01:14:14;100735.69;;;-4.93;100.00
13420;BME280;6781;58.440;15.470;2022-12-24T01:16:41;100733.91;;;-4.86;100.00
13420;BME280;6781;58.440;15.470;2022-12-24T01:19:21;100732.16;;;-4.83;100.00
13420;BME280;6781;58.440;15.470;2022-12-24T01:21:57;100746.50;;;-4.82;100.00
13420;BME280;6781;58.440;15.470;2022-12-24T01:24:37;100742.38;;;-4.89;100.00
13420;BME280;6781;58.440;15.470;2022-12-24T01:27:19;100746.59;;;-4.91;100.00
13420;BME280;6781;58.440;15.470;2022-12-24T01:44:49;100766.88;;;-4.94;100.00
13420;BME280;6781;58.440;15.470;2022-12-24T01:47:31;100778.53;;;-4.82;100.00
13420;BME280;6781;58.440;15.470;2022-12-24T01:50:12;100774.25;;;-4.79;100.00
13420;BME280;6781;58.440;15.470;2022-12-24T01:52:56;100782.72;;;-4.80;100.00
13420;BME280;6781;58.440;15.470;2022-12-24T01:55:37;100784.44;;;-4.85;100.00
13420;BME280;6781;58.440;15.470;2022-12-24T01:58:04;100787.84;;;-4.86;100.00
13420;BME280;6781;58.440;15.470;2022-12-24T02:00:35;100787.06;;;-4.93;100.00
13420;BME280;6781;58.440;15.470;2022-12-24T02:03:02;100777.91;;;-5.01;100.00
13420;BME280;6781;58.440;15.470;2022-12-24T02:05:30;100777.13;;;-5.06;100.00
13420;BME280;6781;58.440;15.470;2022-12-24T02:07:57;100768.75;;;-5.10;100.00
13420;BME280;6781;58.440;15.470;2022-12-24T02:10:25;100771.91;;;-4.93;100.00
13420;BME280;6781;58.440;15.470;2022-12-24T02:12:52;100768.44;;;-4.85;100.00
13420;BME280;6781;58.440;15.470;2022-12-24T02:15:20;100770.25;;;-4.95;100.00
13420;BME280;6781;58.440;15.470;2022-12-24T02:17:50;100768.59;;;-4.96;100.00
13420;BME280;6781;58.440;15.470;2022-12-24T02:20:33;100766.84;;;-4.91;100.00
13420;BME280;6781;58.440;15.470;2022-12-24T02:23:06;100776.09;;;-4.90;100.00
13420;BME280;6781;58.440;15.470;2022-12-24T02:25:47;100789.75;;;-5.03;100.00
13420;BME280;6781;58.440;15.470;2022-12-24T02:28:20;100778.13;;;-5.19;100.00
13420;BME280;6781;58.440;15.470;2022-12-24T02:30:54;100783.94;;;-5.11;100.00
13420;BME280;6781;58.440;15.470;2022-12-24T02:33:28;100789.06;;;-5.19;100.00
13420;BME280;6781;58.440;15.470;2022-12-24T02:35:57;100782.50;;;-5.31;100.00
13420;BME280;6781;58.440;15.470;2022-12-24T02:38:25;100795.97;;;-5.29;100.00
13420;BME280;6781;58.440;15.470;2022-12-24T02:40:54;100796.78;;;-5.27;100.00
13420;BME280;6781;58.440;15.470;2022-12-24T02:43:23;100790.84;;;-5.24;100.00
13420;BME280;6781;58.440;15.470;2022-12-24T02:45:55;100795.75;;;-5.13;100.00
13420;BME280;6781;58.440;15.470;2022-12-24T02:48:23;100799.25;;;-5.22;100.00
13420;BME280;6781;58.440;15.470;2022-12-24T02:50:54;100803.47;;;-5.21;100.00
13420;BME280;6781;58.440;15.470;2022-12-24T02:53:21;100797.66;;;-5.31;100.00
13420;BME280;6781;58.440;15.470;2022-12-24T02:55:51;100800.88;;;-5.19;100.00
13420;BME280;6781;58.440;15.470;2022-12-24T02:58:24;100807.59;;;-5.18;100.00
13420;BME280;6781;58.440;15.470;2022-12-24T03:01:00;100806.81;;;-5.20;100.00
13420;BME280;6781;58.440;15.470;2022-12-24T03:03:43;100816.97;;;-5.23;100.00
13420;BME280;6781;58.440;15.470;2022-12-24T03:08:49;100802.75;;;-5.35;100.00
13420;BME280;6781;58.440;15.470;2022-12-24T03:11:20;100806.16;;;-5.36;100.00
13420;BME280;6781;58.440;15.470;2022-12-24T03:13:47;100806.97;;;-5.36;100.00
13420;BME280;6781;58.440;15.470;2022-12-24T03:16:16;100814.56;;;-5.37;100.00
13420;BME280;6781;58.440;15.470;2022-12-24T03:18:46;100806.16;;;-5.36;100.00
13420;BME280;6781;58.440;15.470;2022-12-24T03:21:15;100814.56;;;-5.36;100.00
13420;BME280;6781;58.440;15.470;2022-12-24T03:23:43;100821.31;;;-5.36;100.00
13420;BME280;6781;58.440;15.470;2022-12-24T03:26:10;100819.59;;;-5.34;100.00
13420;BME280;6781;58.440;15.470;2022-12-24T03:28:39;100826.34;;;-5.35;100.00
13420;BME280;6781;58.440;15.470;2022-12-24T03:31:07;100823.81;;;-5.35;100.00
13420;BME280;6781;58.440;15.470;2022-12-24T03:33:35;100820.44;;;-5.35;100.00
13420;BME280;6781;58.440;15.470;2022-12-24T03:36:03;100817.91;;;-5.34;100.00
13420;BME280;6781;58.440;15.470;2022-12-24T03:38:32;100833.91;;;-5.35;100.00
13420;BME280;6781;58.440;15.470;2022-12-24T03:41:16;100835.56;;;-5.31;100.00
13420;BME280;6781;58.440;15.470;2022-12-24T03:43:43;100838.97;;;-5.35;100.00
13420;BME280;6781;58.440;15.470;2022-12-24T03:46:09;100838.16;;;-5.38;100.00
13420;BME280;6781;58.440;15.470;2022-12-24T03:48:43;100845.69;;;-5.34;100.00
13420;BME280;6781;58.440;15.470;2022-12-24T03:51:19;100854.03;;;-5.26;100.00
13420;BME280;6781;58.440;15.470;2022-12-24T03:53:47;100862.56;;;-5.36;100.00
13420;BME280;6781;58.440;15.470;2022-12-24T03:56:14;100860.03;;;-5.36;100.00
13420;BME280;6781;58.440;15.470;2022-12-24T03:58:41;100854.16;;;-5.38;100.00
13420;BME280;6781;58.440;15.470;2022-12-24T04:01:07;100856.66;;;-5.35;100.00
13420;BME280;6781;58.440;15.470;2022-12-24T04:03:34;100865.09;;;-5.36;100.00
13420;BME280;6781;58.440;15.470;2022-12-24T04:06:03;100861.72;;;-5.35;100.00
13420;BME280;6781;58.440;15.470;2022-12-24T04:08:30;100870.06;;;-5.28;100.00
13420;BME280;6781;58.440;15.470;2022-12-24T04:10:57;100866.75;;;-5.35;100.00
13420;BME280;6781;58.440;15.470;2022-12-24T04:13:24;100877.69;;;-5.33;100.00
13420;BME280;6781;58.440;15.470;2022-12-24T04:15:55;100879.34;;;-5.29;100.00
13420;BME280;6781;58.440;15.470;2022-12-24T04:18:22;100878.53;;;-5.34;100.00
13420;BME280;6781;58.440;15.470;2022-12-24T04:20:49;100886.13;;;-5.34;100.00
13420;BME280;6781;58.440;15.470;2022-12-24T04:23:21;100874.34;;;-5.35;100.00
13420;BME280;6781;58.440;15.470;2022-12-24T04:25:48;100880.22;;;-5.31;100.00
13420;BME280;6781;58.440;15.470;2022-12-24T04:28:15;100881.03;;;-5.31;100.00
13420;BME280;6781;58.440;15.470;2022-12-24T04:30:41;100870.09;;;-5.30;100.00
13420;BME280;6781;58.440;15.470;2022-12-24T04:33:08;100878.53;;;-5.31;100.00
13420;BME280;6781;58.440;15.470;2022-12-24T04:35:37;100878.53;;;-5.32;100.00
13420;BME280;6781;58.440;15.470;2022-12-24T04:38:04;100872.66;;;-5.34;100.00
13420;BME280;6781;58.440;15.470;2022-12-24T04:40:33;100872.63;;;-5.33;100.00
13420;BME280;6781;58.440;15.470;2022-12-24T04:42:59;100880.22;;;-5.31;100.00
13420;BME280;6781;58.440;15.470;2022-12-24T04:45:26;100880.22;;;-5.33;100.00
13420;BME280;6781;58.440;15.470;2022-12-24T04:47:53;100881.91;;;-5.32;100.00
13420;BME280;6781;58.440;15.470;2022-12-24T04:50:21;100892.84;;;-5.33;100.00
13420;BME280;6781;58.440;15.470;2022-12-24T04:52:48;100894.50;;;-5.29;100.00
13420;BME280;6781;58.440;15.470;2022-12-24T04:55:15;100892.00;;;-5.32;100.00
13420;BME280;6781;58.440;15.470;2022-12-24T04:57:43;100896.19;;;-5.28;100.00
13420;BME280;6781;58.440;15.470;2022-12-24T05:00:10;100905.38;;;-5.22;100.00
13420;BME280;6781;58.440;15.470;2022-12-24T05:02:37;100913.00;;;-5.27;100.00
13420;BME280;6781;58.440;15.470;2022-12-24T05:05:04;100909.53;;;-5.19;100.00
13420;BME280;6781;58.440;15.470;2022-12-24T05:07:32;100919.75;;;-5.26;100.00
13420;BME280;6781;58.440;15.470;2022-12-24T05:09:59;100918.00;;;-5.20;100.00
13420;BME280;6781;58.440;15.470;2022-12-24T05:12:25;100921.41;;;-5.25;100.00
13420;BME280;6781;58.440;15.470;2022-12-24T05:14:54;100918.09;;;-5.30;100.00
13420;BME280;6781;58.440;15.470;2022-12-24T05:17:21;100929.06;;;-5.32;100.00
13420;BME280;6781;58.440;15.470;2022-12-24T05:19:47;100928.19;;;-5.30;100.00
13420;BME280;6781;58.440;15.470;2022-12-24T05:22:14;100923.94;;;-5.25;100.00
13420;BME280;6781;58.440;15.470;2022-12-24T05:24:58;100923.19;;;-5.33;100.00
13420;BME280;6781;58.440;15.470;2022-12-24T05:27:42;100929.88;;;-5.29;100.00
13420;BME280;6781;58.440;15.470;2022-12-24T05:30:12;100931.59;;;-5.32;100.00
13420;BME280;6781;58.440;15.470;2022-12-24T05:32:39;100934.09;;;-5.31;100.00
13420;BME280;6781;58.440;15.470;2022-12-24T05:35:06;100929.91;;;-5.33;100.00
13420;BME280;6781;58.440;15.470;2022-12-24T05:37:33;100934.13;;;-5.34;100.00
13420;BME280;6781;58.440;15.470;2022-12-24T05:39:59;100930.72;;;-5.30;100.00
13420;BME280;6781;58.440;15.470;2022-12-24T05:42:26;100940.78;;;-5.22;100.00
13420;BME280;6781;58.440;15.470;2022-12-24T05:44:53;100935.72;;;-5.23;100.00
13420;BME280;6781;58.440;15.470;2022-12-24T05:47:21;100945.00;;;-5.24;100.00
13420;BME280;6781;58.440;15.470;2022-12-24T05:49:48;100935.88;;;-5.40;100.00
13420;BME280;6781;58.440;15.470;2022-12-24T05:52:14;100951.81;;;-5.34;100.00
13420;BME280;6781;58.440;15.470;2022-12-24T05:54:42;100946.81;;;-5.40;100.00
13420;BME280;6781;58.440;15.470;2022-12-24T05:57:08;100946.81;;;-5.40;100.00
13420;BME280;6781;58.440;15.470;2022-12-24T05:59:36;100938.38;;;-5.37;100.00
13420;BME280;6781;58.440;15.470;2022-12-24T06:02:03;100947.63;;;-5.38;100.00
13420;BME280;6781;58.440;15.470;2022-12-24T06:04:31;100946.75;;;-5.34;100.00
13420;BME280;6781;58.440;15.470;2022-12-24T06:06:57;100956.88;;;-5.34;100.00
13420;BME280;6781;58.440;15.470;2022-12-24T06:09:24;100959.38;;;-5.29;100.00
13420;BME280;6781;58.440;15.470;2022-12-24T06:11:51;100956.84;;;-5.31;100.00
13420;BME280;6781;58.440;15.470;2022-12-24T06:14:18;100961.03;;;-5.28;100.00
13420;BME280;6781;58.440;15.470;2022-12-24T06:16:45;100953.53;;;-5.36;100.00
13420;BME280;6781;58.440;15.470;2022-12-24T06:19:12;100959.41;;;-5.35;100.00
13420;BME280;6781;58.440;15.470;2022-12-24T06:21:40;100963.63;;;-5.36;100.00
13420;BME280;6781;58.440;15.470;2022-12-24T06:24:07;100975.47;;;-5.41;100.00
13420;BME280;6781;58.440;15.470;2022-12-24T06:26:34;100974.59;;;-5.40;100.00
13420;BME280;6781;58.440;15.470;2022-12-24T06:29:00;100977.13;;;-5.40;100.00
13420;BME280;6781;58.440;15.470;2022-12-24T06:31:27;100983.84;;;-5.39;100.00
13420;BME280;6781;58.440;15.470;2022-12-24T06:33:54;100985.53;;;-5.39;100.00
13420;BME280;6781;58.440;15.470;2022-12-24T06:36:22;100997.34;;;-5.40;100.00
13420;BME280;6781;58.440;15.470;2022-12-24T06:38:50;101000.72;;;-5.41;100.00
13420;BME280;6781;58.440;15.470;2022-12-24T06:41:17;101009.09;;;-5.33;100.00
13420;BME280;6781;58.440;15.470;2022-12-24T06:43:44;101006.56;;;-5.33;100.00
13420;BME280;6781;58.440;15.470;2022-12-24T06:46:12;101014.13;;;-5.33;100.00
13420;BME280;6781;58.440;15.470;2022-12-24T06:48:38;101009.94;;;-5.34;100.00
13420;BME280;6781;58.440;15.470;2022-12-24T06:51:05;101020.88;;;-5.35;100.00
13420;BME280;6781;58.440;15.470;2022-12-24T06:53:32;101026.81;;;-5.37;100.00
13420;BME280;6781;58.440;15.470;2022-12-24T06:56:04;101026.84;;;-5.46;100.00
13420;BME280;6781;58.440;15.470;2022-12-24T06:58:31;101025.16;;;-5.44;100.00
13420;BME280;6781;58.440;15.470;2022-12-24T07:00:59;101017.63;;;-5.49;100.00
13420;BME280;6781;58.440;15.470;2022-12-24T07:03:26;101032.75;;;-5.46;100.00
13420;BME280;6781;58.440;15.470;2022-12-24T07:05:53;101032.75;;;-5.44;100.00
13420;BME280;6781;58.440;15.470;2022-12-24T07:08:20;101036.09;;;-5.41;100.00
13420;BME280;6781;58.440;15.470;2022-12-24T07:10:47;101035.25;;;-5.43;100.00
13420;BME280;6781;58.440;15.470;2022-12-24T07:13:15;101046.19;;;-5.38;100.00
13420;BME280;6781;58.440;15.470;2022-12-24T07:15:42;101049.53;;;-5.36;100.00
13420;BME280;6781;58.440;15.470;2022-12-24T07:18:09;101046.19;;;-5.38;100.00
13420;BME280;6781;58.440;15.470;2022-12-24T07:20:36;101060.47;;;-5.35;100.00
13420;BME280;6781;58.440;15.470;2022-12-24T07:23:03;101071.44;;;-5.36;100.00
13420;BME280;6781;58.440;15.470;2022-12-24T07:25:30;101068.09;;;-5.40;100.00
13420;BME280;6781;58.440;15.470;2022-12-24T07:27:57;101069.78;;;-5.43;100.00
13420;BME280;6781;58.440;15.470;2022-12-24T07:30:26;101072.31;;;-5.42;100.00
13420;BME280;6781;58.440;15.470;2022-12-24T07:32:52;101071.41;;;-5.35;100.00
13420;BME280;6781;58.440;15.470;2022-12-24T07:35:19;101066.41;;;-5.44;100.00
13420;BME280;6781;58.440;15.470;2022-12-24T07:37:46;101073.97;;;-5.41;100.00
13420;BME280;6781;58.440;15.470;2022-12-24T07:40:13;101086.56;;;-5.32;100.00
13420;BME280;6781;58.440;15.470;2022-12-24T07:42:40;101084.88;;;-5.30;100.00
13420;BME280;6781;58.440;15.470;2022-12-24T07:45:07;101089.97;;;-5.36;100.00
13420;BME280;6781;58.440;15.470;2022-12-24T07:47:35;101092.50;;;-5.37;100.00
13420;BME280;6781;58.440;15.470;2022-12-24T07:50:02;101095.03;;;-5.39;100.00
13420;BME280;6781;58.440;15.470;2022-12-24T07:52:29;101108.50;;;-5.37;100.00
13420;BME280;6781;58.440;15.470;2022-12-24T07:54:55;101092.53;;;-5.43;100.00
13420;BME280;6781;58.440;15.470;2022-12-24T07:57:22;101103.47;;;-5.43;100.00
13420;BME280;6781;58.440;15.470;2022-12-24T07:59:49;101109.31;;;-5.35;100.00
13420;BME280;6781;58.440;15.470;2022-12-24T08:02:16;101105.97;;;-5.40;100.00
13420;BME280;6781;58.440;15.470;2022-12-24T08:04:44;101106.81;;;-5.41;100.00
13420;BME280;6781;58.440;15.470;2022-12-24T08:07:11;101110.19;;;-5.39;100.00
13420;BME280;6781;58.440;15.470;2022-12-24T08:09:38;101116.03;;;-5.31;100.00
13420;BME280;6781;58.440;15.470;2022-12-24T08:12:05;101118.56;;;-5.34;100.00
13420;BME280;6781;58.440;15.470;2022-12-24T08:14:31;101116.94;;;-5.41;100.00
13420;BME280;6781;58.440;15.470;2022-12-24T08:16:58;101118.56;;;-5.34;100.00
13420;BME280;6781;58.440;15.470;2022-12-24T08:19:25;101117.75;;;-5.36;100.00
13420;BME280;6781;58.440;15.470;2022-12-24T08:21:54;101121.13;;;-5.35;100.00
13420;BME280;6781;58.440;15.470;2022-12-24T08:24:21;101117.75;;;-5.36;100.00
13420;BME280;6781;58.440;15.470;2022-12-24T08:26:47;101128.69;;;-5.35;100.00
13420;BME280;6781;58.440;15.470;2022-12-24T08:29:14;101136.28;;;-5.34;100.00
13420;BME280;6781;58.440;15.470;2022-12-24T08:31:41;101143.84;;;-5.34;100.00
13420;BME280;6781;58.440;15.470;2022-12-24T08:34:08;101146.34;;;-5.29;100.00
13420;BME280;6781;58.440;15.470;2022-12-24T08:36:35;101149.69;;;-5.22;100.00
13420;BME280;6781;58.440;15.470;2022-12-24T08:39:04;101154.69;;;-5.19;100.00
13420;BME280;6781;58.440;15.470;2022-12-24T08:41:33;101161.41;;;-5.17;100.00
13420;BME280;6781;58.440;15.470;2022-12-24T08:43:59;101171.50;;;-5.12;100.00
13420;BME280;6781;58.440;15.470;2022-12-24T08:46:26;101178.19;;;-5.04;100.00
13420;BME280;6781;58.440;15.470;2022-12-24T08:48:53;101179.00;;;-4.97;100.00
13420;BME280;6781;58.440;15.470;2022-12-24T08:51:20;101194.97;;;-4.87;100.00
13420;BME280;6781;58.440;15.470;2022-12-24T08:53:47;101196.63;;;-4.82;100.00
13420;BME280;6781;58.440;15.470;2022-12-24T08:56:15;101203.34;;;-4.78;100.00
13420;BME280;6781;58.440;15.470;2022-12-24T08:58:42;101212.56;;;-4.72;100.00
13420;BME280;6781;58.440;15.470;2022-12-24T09:01:10;101217.59;;;-4.65;100.00
13420;BME280;6781;58.440;15.470;2022-12-24T09:03:37;101229.34;;;-4.59;100.00
13420;BME280;6781;58.440;15.470;2022-12-24T09:06:03;101227.66;;;-4.55;100.00
13420;BME280;6781;58.440;15.470;2022-12-24T09:08:30;101232.66;;;-4.51;100.00
13420;BME280;6781;58.440;15.470;2022-12-24T09:11:00;101235.19;;;-4.48;100.00
13420;BME280;6781;58.440;15.470;2022-12-24T09:13:29;101239.41;;;-4.48;100.00
13420;BME280;6781;58.440;15.470;2022-12-24T09:15:55;101236.06;;;-4.55;100.00
13420;BME280;6781;58.440;15.470;2022-12-24T09:18:22;101247.88;;;-4.55;100.00
13420;BME280;6781;58.440;15.470;2022-12-24T09:20:49;101239.44;;;-4.54;100.00
13420;BME280;6781;58.440;15.470;2022-12-24T09:23:15;101242.88;;;-4.62;100.00
13420;BME280;6781;58.440;15.470;2022-12-24T09:25:42;101252.97;;;-4.62;100.00
13420;BME280;6781;58.440;15.470;2022-12-24T09:28:09;101249.59;;;-4.61;100.00
13420;BME280;6781;58.440;15.470;2022-12-24T09:30:37;101255.53;;;-4.66;100.00
13420;BME280;6781;58.440;15.470;2022-12-24T09:33:04;101250.47;;;-4.63;100.00
13420;BME280;6781;58.440;15.470;2022-12-24T09:35:31;101253.03;;;-4.68;100.00
13420;BME280;6781;58.440;15.470;2022-12-24T09:37:58;101251.31;;;-4.66;100.00
13420;BME280;6781;58.440;15.470;2022-12-24T09:40:29;101260.59;;;-4.65;100.00
13420;BME280;6781;58.440;15.470;2022-12-24T09:42:58;101269.00;;;-4.61;100.00
13420;BME280;6781;58.440;15.470;2022-12-24T09:45:29;101274.91;;;-4.61;100.00
13420;BME280;6781;58.440;15.470;2022-12-24T09:48:02;101279.97;;;-4.61;100.00
13420;BME280;6781;58.440;15.470;2022-12-24T09:50:31;101286.69;;;-4.60;100.00
13420;BME280;6781;58.440;15.470;2022-12-24T09:53:02;101301.88;;;-4.56;100.00
13420;BME280;6781;58.440;15.470;2022-12-24T09:55:33;101296.81;;;-4.56;100.00
13420;BME280;6781;58.440;15.470;2022-12-24T09:58:01;101302.72;;;-4.56;100.00
13420;BME280;6781;58.440;15.470;2022-12-24T10:00:31;101309.44;;;-4.55;100.00
13420;BME280;6781;58.440;15.470;2022-12-24T10:02:59;101322.09;;;-4.52;100.00
13420;BME280;6781;58.440;15.470;2022-12-24T10:05:34;101333.88;;;-4.46;100.00
13420;BME280;6781;58.440;15.470;2022-12-24T10:08:05;101328.78;;;-4.43;100.00
13420;BME280;6781;58.440;15.470;2022-12-24T10:10:36;101328.78;;;-4.40;100.00
13420;BME280;6781;58.440;15.470;2022-12-24T10:13:06;101340.59;;;-4.41;100.00
13420;BME280;6781;58.440;15.470;2022-12-24T10:15:38;101355.75;;;-4.39;100.00
13420;BME280;6781;58.440;15.470;2022-12-24T10:18:08;101355.78;;;-4.44;100.00
13420;BME280;6781;58.440;15.470;2022-12-24T10:20:43;101350.72;;;-4.42;100.00
13420;BME280;6781;58.440;15.470;2022-12-24T10:23:13;101360.84;;;-4.45;100.00
13420;BME280;6781;58.440;15.470;2022-12-24T10:25:43;101360.84;;;-4.42;100.00
13420;BME280;6781;58.440;15.470;2022-12-24T10:28:13;101362.53;;;-4.41;100.00
13420;BME280;6781;58.440;15.470;2022-12-24T10:30:40;101366.72;;;-4.40;100.00
13420;BME280;6781;58.440;15.470;2022-12-24T10:33:11;101379.38;;;-4.37;100.00
13420;BME280;6781;58.440;15.470;2022-12-24T10:35:45;101380.19;;;-4.35;100.00
13420;BME280;6781;58.440;15.470;2022-12-24T10:38:13;101382.72;;;-4.32;100.00
13420;BME280;6781;58.440;15.470;2022-12-24T10:40:54;101386.06;;;-4.27;100.00
13420;BME280;6781;58.440;15.470;2022-12-24T10:43:32;101390.28;;;-4.26;100.00
13420;BME280;6781;58.440;15.470;2022-12-24T10:46:00;101399.56;;;-4.25;100.00
13420;BME280;6781;58.440;15.470;2022-12-24T10:48:27;101404.63;;;-4.28;100.00
13420;BME280;6781;58.440;15.470;2022-12-24T10:50:59;101408.00;;;-4.23;100.00
13420;BME280;6781;58.440;15.470;2022-12-24T10:53:31;101420.63;;;-4.20;100.00
13420;BME280;6781;58.440;15.470;2022-12-24T10:56:02;101433.25;;;-4.11;100.00
13420;BME280;6781;58.440;15.470;2022-12-24T10:58:30;101447.56;;;-4.02;100.00
13420;BME280;6781;58.440;15.470;2022-12-24T11:00:56;101453.44;;;-3.96;100.00
13420;BME280;6781;58.440;15.470;2022-12-24T11:03:27;101455.06;;;-3.85;100.00
13420;BME280;6781;58.440;15.470;2022-12-24T11:09:19;101487.00;;;-3.60;100.00
13420;BME280;6781;58.440;15.470;2022-12-24T11:11:46;101497.91;;;-3.50;100.00
13420;BME280;6781;58.440;15.470;2022-12-24T11:14:15;101523.16;;;-3.38;100.00
13420;BME280;6781;58.440;15.470;2022-12-24T11:16:46;101537.47;;;-3.30;100.00
13420;BME280;6781;58.440;15.470;2022-12-24T11:19:14;101555.16;;;-3.17;100.00
13420;BME280;6781;58.440;15.470;2022-12-24T11:21:42;101562.72;;;-3.14;100.00
13420;BME280;6781;58.440;15.470;2022-12-24T11:24:15;101583.81;;;-3.06;100.00
13420;BME280;6781;58.440;15.470;2022-12-24T11:26:47;101582.97;;;-3.08;100.00
13420;BME280;6781;58.440;15.470;2022-12-24T11:29:15;101591.41;;;-3.06;100.00
13420;BME280;6781;58.440;15.470;2022-12-24T11:31:42;101592.22;;;-2.98;100.00
13420;BME280;6781;58.440;15.470;2022-12-24T11:34:17;101602.28;;;-2.89;100.00
13420;BME280;6781;58.440;15.470;2022-12-24T11:36:47;101610.75;;;-2.87;100.00
13420;BME280;6781;58.440;15.470;2022-12-24T11:39:17;101614.94;;;-2.84;100.00
13420;BME280;6781;58.440;15.470;2022-12-24T11:41:44;101601.44;;;-2.88;100.00
13420;BME280;6781;58.440;15.470;2022-12-24T11:44:13;101609.81;;;-2.77;100.00
13420;BME280;6781;58.440;15.470;2022-12-24T11:46:40;101610.66;;;-2.75;100.00
13420;BME280;6781;58.440;15.470;2022-12-24T11:49:21;101611.50;;;-2.77;100.00
13420;BME280;6781;58.440;15.470;2022-12-24T11:54:41;101618.25;;;-2.75;100.00
13420;BME280;6781;58.440;15.470;2022-12-24T11:57:10;101621.66;;;-2.76;100.00
13420;BME280;6781;58.440;15.470;2022-12-24T11:59:40;101626.66;;;-2.67;100.00
13420;BME280;6781;58.440;15.470;2022-12-24T12:02:12;101623.25;;;-2.63;100.00
13420;BME280;6781;58.440;15.470;2022-12-24T12:04:43;101625.78;;;-2.61;100.00
13420;BME280;6781;58.440;15.470;2022-12-24T12:07:12;101628.38;;;-2.69;100.00
13420;BME280;6781;58.440;15.470;2022-12-24T12:09:40;101623.22;;;-2.59;100.00
13420;BME280;6781;58.440;15.470;2022-12-24T12:12:11;101619.91;;;-2.68;100.00
13420;BME280;6781;58.440;15.470;2022-12-24T12:14:43;101618.25;;;-2.73;100.00
13420;BME280;6781;58.440;15.470;2022-12-24T12:17:12;101614.91;;;-2.80;100.00
13420;BME280;6781;58.440;15.470;2022-12-24T12:19:44;101604.75;;;-2.78;100.00
13420;BME280;6781;58.440;15.470;2022-12-24T12:22:17;101603.09;;;-2.84;100.00
13420;BME280;6781;58.440;15.470;2022-12-24T12:24:46;101610.66;;;-2.78;100.00
13420;BME280;6781;58.440;15.470;2022-12-24T12:27:16;101606.50;;;-2.85;100.00
13420;BME280;6781;58.440;15.470;2022-12-24T12:29:48;101604.75;;;-2.80;100.00
13420;BME280;6781;58.440;15.470;2022-12-24T12:32:20;101597.13;;;-2.78;100.00
13420;BME280;6781;58.440;15.470;2022-12-24T12:34:52;101601.31;;;-2.73;100.00
13420;BME280;6781;58.440;15.470;2022-12-24T12:37:23;101604.69;;;-2.71;100.00
13420;BME280;6781;58.440;15.470;2022-12-24T12:39:52;101600.47;;;-2.70;100.00
13420;BME280;6781;58.440;15.470;2022-12-24T12:42:21;101602.97;;;-2.66;100.00
13420;BME280;6781;58.440;15.470;2022-12-24T12:45:00;101598.75;;;-2.68;100.00
13420;BME280;6781;58.440;15.470;2022-12-24T12:47:39;101604.63;;;-2.62;100.00
13420;BME280;6781;58.440;15.470;2022-12-24T12:50:11;101598.72;;;-2.64;100.00
13420;BME280;6781;58.440;15.470;2022-12-24T12:52:53;101599.53;;;-2.58;100.00
13420;BME280;6781;58.440;15.470;2022-12-24T12:55:27;101597.00;;;-2.60;100.00
13420;BME280;6781;58.440;15.470;2022-12-24T12:58:00;101598.69;;;-2.62;100.00
13420;BME280;6781;58.440;15.470;2022-12-24T13:00:32;101597.03;;;-2.65;100.00
13420;BME280;6781;58.440;15.470;2022-12-24T13:03:19;101597.88;;;-2.66;100.00
13420;BME280;6781;58.440;15.470;2022-12-24T13:08:48;101591.13;;;-2.67;100.00
13420;BME280;6781;58.440;15.470;2022-12-24T13:11:32;101591.16;;;-2.70;100.00
13420;BME280;6781;58.440;15.470;2022-12-24T13:14:09;101594.50;;;-2.65;100.00
13420;BME280;6781;58.440;15.470;2022-12-24T13:19:34;101606.34;;;-2.67;100.00
13420;BME280;6781;58.440;15.470;2022-12-24T13:22:04;101603.00;;;-2.70;100.00
13420;BME280;6781;58.440;15.470;2022-12-24T13:24:39;101602.16;;;-2.72;100.00
13420;BME280;6781;58.440;15.470;2022-12-24T13:27:10;101608.94;;;-2.74;100.00
13420;BME280;6781;58.440;15.470;2022-12-24T13:29:42;101611.44;;;-2.68;100.00
13420;BME280;6781;58.440;15.470;2022-12-24T13:34:57;101603.94;;;-2.82;100.00
13420;BME280;6781;58.440;15.470;2022-12-24T13:37:31;101605.59;;;-2.79;100.00
13420;BME280;6781;58.440;15.470;2022-12-24T13:42:48;101609.81;;;-2.77;100.00
13420;BME280;6781;58.440;15.470;2022-12-24T13:45:40;101616.53;;;-2.70;100.00
13420;BME280;6781;58.440;15.470;2022-12-24T13:48:12;101626.69;;;-2.70;100.00
13420;BME280;6781;58.440;15.470;2022-12-24T13:50:42;101628.41;;;-2.72;100.00
13420;BME280;6781;58.440;15.470;2022-12-24T13:53:18;101630.09;;;-2.75;100.00
13420;BME280;6781;58.440;15.470;2022-12-24T13:55:48;101630.06;;;-2.69;100.00
13420;BME280;6781;58.440;15.470;2022-12-24T13:58:16;101633.50;;;-2.75;100.00
13420;BME280;6781;58.440;15.470;2022-12-24T14:00:50;101638.56;;;-2.75;100.00
13420;BME280;6781;58.440;15.470;2022-12-24T14:03:21;101645.28;;;-2.68;100.00
13420;BME280;6781;58.440;15.470;2022-12-24T14:05:52;101635.25;;;-2.86;100.00
13420;BME280;6781;58.440;15.470;2022-12-24T14:08:27;101637.75;;;-2.78;100.00
13420;BME280;6781;58.440;15.470;2022-12-24T14:10:57;101641.94;;;-2.73;100.00
13420;BME280;6781;58.440;15.470;2022-12-24T14:16:13;101648.69;;;-2.72;100.00
13420;BME280;6781;58.440;15.470;2022-12-24T14:18:41;101648.72;;;-2.76;100.00
13420;BME280;6781;58.440;15.470;2022-12-24T14:21:15;101639.50;;;-2.88;100.00
13420;BME280;6781;58.440;15.470;2022-12-24T14:23:44;101641.19;;;-2.85;100.00
13420;BME280;6781;58.440;15.470;2022-12-24T14:26:13;101647.13;;;-2.91;100.00
13420;BME280;6781;58.440;15.470;2022-12-24T14:28:42;101645.41;;;-2.86;100.00